createdAt,value
2022-11-16T00:23:51.214Z,0
2022-11-16T00:28:07.144Z,0
2022-11-16T00:43:20.268Z,0
2022-11-16T00:48:04.635Z,0
2022-11-16T00:53:04.652Z,0
2022-11-16T00:58:04.631Z,0
2022-11-16T01:03:04.682Z,0
2022-11-16T01:08:04.618Z,0
2022-11-16T01:13:04.737Z,0
2022-11-16T01:18:05.177Z,0
2022-11-16T01:23:04.828Z,0
2022-11-16T01:28:04.822Z,0
2022-11-16T01:33:05.039Z,0
2022-11-16T01:38:04.819Z,0
2022-11-16T01:43:04.706Z,0
2022-11-16T01:48:04.867Z,0
2022-11-16T01:53:04.691Z,0
2022-11-16T01:58:04.698Z,0
2022-11-16T02:03:04.774Z,0
2022-11-16T02:08:04.756Z,0
2022-11-16T02:13:04.713Z,0
2022-11-16T02:18:04.620Z,0
2022-11-16T02:23:04.625Z,0
2022-11-16T02:28:04.603Z,0
2022-11-16T02:33:04.628Z,0
2022-11-16T02:38:04.613Z,0
2022-11-16T02:43:04.632Z,0
2022-11-16T02:48:04.703Z,0
2022-11-16T02:53:04.640Z,0
2022-11-16T02:58:04.666Z,0
2022-11-16T03:03:04.626Z,0
2022-11-16T03:08:04.644Z,0
2022-11-16T03:13:04.794Z,0
2022-11-16T03:18:10.659Z,0
2022-11-16T03:23:04.682Z,0
2022-11-16T03:28:04.615Z,0
2022-11-16T03:33:04.701Z,0
2022-11-16T03:38:04.668Z,0
2022-11-16T03:43:04.708Z,0
2022-11-16T03:48:04.679Z,0
2022-11-16T03:53:04.717Z,0
2022-11-16T03:58:04.661Z,0
2022-11-16T04:03:04.744Z,0
2022-11-16T04:08:04.704Z,0
2022-11-16T04:13:04.894Z,0
2022-11-16T04:18:04.673Z,0
2022-11-16T04:23:04.690Z,0
2022-11-16T04:28:04.656Z,0
2022-11-16T04:33:04.744Z,0
2022-11-16T04:38:04.683Z,0
2022-11-16T04:43:04.698Z,0
2022-11-16T04:48:04.717Z,0
2022-11-16T04:53:04.701Z,0
2022-11-16T04:58:04.671Z,0
2022-11-16T05:03:04.691Z,0
2022-11-16T05:08:04.624Z,0
2022-11-16T05:13:05.294Z,0
2022-11-16T05:18:04.705Z,0
2022-11-16T05:23:04.744Z,0
2022-11-16T05:33:24.284Z,0
2022-11-16T05:38:04.723Z,0
2022-11-16T05:43:04.822Z,0
2022-11-16T05:48:04.659Z,0
2022-11-16T05:53:04.764Z,0
2022-11-16T05:58:04.714Z,0
2022-11-16T06:03:04.783Z,0
2022-11-16T06:08:04.749Z,0
2022-11-16T06:13:04.683Z,0
2022-11-16T06:18:09.653Z,0
2022-11-16T06:23:04.753Z,0
2022-11-16T06:28:08.212Z,0
2022-11-16T06:33:04.765Z,0
2022-11-16T06:38:04.738Z,0
2022-11-16T06:43:04.688Z,0
2022-11-16T06:48:04.724Z,0
2022-11-16T06:53:04.693Z,0
2022-11-16T06:58:04.668Z,0
2022-11-16T07:03:04.741Z,0
2022-11-16T07:08:04.716Z,0
2022-11-16T07:13:04.674Z,265
2022-11-16T07:18:04.750Z,0
2022-11-16T07:23:04.766Z,0
2022-11-16T07:28:04.661Z,267
2022-11-16T07:33:04.762Z,269
2022-11-16T07:38:04.774Z,269
2022-11-16T07:43:04.844Z,266
2022-11-16T07:48:04.677Z,0
2022-11-16T07:53:04.727Z,0
2022-11-16T07:58:04.720Z,266
2022-11-16T08:03:04.756Z,266
2022-11-16T08:08:04.848Z,268
2022-11-16T08:13:04.796Z,270
2022-11-16T08:18:04.744Z,268
2022-11-16T08:23:04.835Z,272
2022-11-16T08:28:04.884Z,271
2022-11-16T08:53:05.116Z,280
2022-11-16T08:58:07.325Z,279
2022-11-16T09:03:06.622Z,278
2022-11-16T09:08:05.801Z,274
2022-11-16T09:13:05.328Z,279
2022-11-16T09:18:05.222Z,280
2022-11-16T09:23:05.362Z,279
2022-11-16T09:28:09.459Z,275
2022-11-16T09:33:07.280Z,281
2022-11-16T09:38:05.352Z,278
2022-11-16T09:43:19.094Z,277
2022-11-16T09:48:05.127Z,283
2022-11-16T09:53:05.427Z,291
2022-11-16T09:58:05.273Z,294
2022-11-16T10:03:05.184Z,296
2022-11-16T10:08:05.048Z,292
2022-11-16T10:13:05.159Z,286
2022-11-16T10:18:05.258Z,294
2022-11-16T10:23:04.931Z,290
2022-11-16T10:28:05.059Z,307
2022-11-16T10:33:11.039Z,334
2022-11-16T10:38:05.117Z,306
2022-11-16T10:43:26.026Z,305
2022-11-16T10:48:05.170Z,297
2022-11-16T10:53:06.020Z,302
2022-11-16T10:58:05.306Z,299
2022-11-16T11:03:05.065Z,306
2022-11-16T11:08:06.326Z,299
2022-11-16T11:13:06.051Z,315
2022-11-16T11:18:05.093Z,316
2022-11-16T11:23:05.231Z,330
2022-11-16T11:28:04.950Z,337
2022-11-16T11:33:05.161Z,327
2022-11-16T11:38:08.539Z,319
2022-11-16T11:43:27.631Z,343
2022-11-16T11:48:05.026Z,336
2022-11-16T11:53:05.133Z,346
2022-11-16T11:58:05.024Z,353
2022-11-16T12:03:05.448Z,363
2022-11-16T12:08:06.054Z,352
2022-11-16T12:13:05.604Z,346
2022-11-16T12:18:06.681Z,396
2022-11-16T12:23:05.070Z,325
2022-11-16T12:28:05.432Z,324
2022-11-16T12:33:08.859Z,305
2022-11-16T12:38:06.562Z,303
2022-11-16T12:43:27.042Z,294
2022-11-16T12:48:05.537Z,298
2022-11-16T12:53:05.034Z,301
2022-11-16T12:58:07.235Z,299
2022-11-16T13:03:05.078Z,297
2022-11-16T13:08:05.138Z,292
2022-11-16T13:13:30.048Z,304
2022-11-16T13:18:05.197Z,291
2022-11-16T13:23:05.627Z,284
2022-11-16T13:28:05.711Z,292
2022-11-16T13:33:53.173Z,299
2022-11-16T13:38:05.551Z,300
2022-11-16T13:43:34.968Z,300
2022-11-16T13:48:05.155Z,300
2022-11-16T13:58:08.439Z,289
2022-11-16T14:03:12.776Z,289
2022-11-16T14:08:05.045Z,284
2022-11-16T14:13:05.139Z,278
2022-11-16T14:18:06.288Z,278
2022-11-16T14:23:05.193Z,278
2022-11-16T14:28:05.188Z,274
2022-11-16T14:33:06.967Z,272
2022-11-16T14:38:05.218Z,270
2022-11-16T14:43:23.140Z,267
2022-11-16T14:48:06.622Z,268
2022-11-16T14:53:07.078Z,267
2022-11-16T14:58:10.376Z,267
2022-11-16T15:03:08.510Z,265
2022-11-16T15:08:06.151Z,0
2022-11-16T15:13:05.267Z,265
2022-11-16T15:18:49.008Z,0
2022-11-16T15:23:14.353Z,0
2022-11-16T15:28:12.070Z,0
2022-11-16T15:33:12.830Z,0
2022-11-16T15:53:05.283Z,0
2022-11-16T15:58:11.111Z,0
2022-11-16T16:03:41.915Z,0
2022-11-16T16:08:18.678Z,0
2022-11-16T16:13:06.925Z,0
2022-11-16T16:18:33.212Z,0
2022-11-16T16:23:05.203Z,0
2022-11-16T16:28:10.474Z,0
2022-11-16T16:38:08.516Z,0
2022-11-16T16:49:08.738Z,0
2022-11-16T17:18:32.510Z,0
2022-11-16T19:03:11.854Z,0
2022-11-16T19:08:08.754Z,0
2022-11-16T19:13:08.837Z,0
2022-11-16T19:18:20.772Z,0
2022-11-16T19:23:14.897Z,0
2022-11-16T19:28:08.812Z,0
2022-11-16T19:33:08.772Z,0
2022-11-16T19:38:08.860Z,0
2022-11-16T19:43:08.913Z,0
2022-11-16T19:48:08.785Z,0
2022-11-16T19:53:09.081Z,0
2022-11-16T19:58:09.716Z,0
2022-11-16T20:03:09.082Z,0
2022-11-16T20:08:08.990Z,0
2022-11-16T20:13:09.229Z,0
2022-11-16T20:18:09.203Z,0
2022-11-16T20:23:10.468Z,0
2022-11-16T20:28:14.239Z,0
2022-11-16T20:33:08.947Z,0
2022-11-16T20:38:10.211Z,0
2022-11-16T20:43:08.844Z,0
2022-11-16T20:48:08.789Z,0
2022-11-16T20:53:08.912Z,0
2022-11-16T20:58:08.954Z,0
2022-11-16T21:03:08.771Z,0
2022-11-16T21:08:08.782Z,0
2022-11-16T21:13:08.804Z,0
2022-11-16T21:18:08.850Z,0
2022-11-16T21:23:08.910Z,0
2022-11-16T21:28:08.751Z,0
2022-11-16T21:33:08.820Z,0
2022-11-16T21:38:09.055Z,0
2022-11-16T21:43:08.750Z,0
2022-11-16T21:48:08.792Z,0
2022-11-16T21:53:08.763Z,0
2022-11-16T21:58:08.796Z,0
2022-11-16T22:03:08.821Z,0
2022-11-16T22:08:08.924Z,0
2022-11-16T22:13:08.857Z,0
2022-11-16T22:18:08.841Z,0
2022-11-16T22:23:08.868Z,0
2022-11-16T22:28:20.422Z,0
2022-11-16T22:33:08.853Z,0
2022-11-16T22:38:08.816Z,0
2022-11-16T22:43:08.918Z,0
2022-11-16T22:48:08.835Z,0
2022-11-16T22:53:08.888Z,0
2022-11-16T22:58:08.802Z,0
2022-11-16T23:03:08.819Z,0
2022-11-16T23:08:08.912Z,0
2022-11-16T23:13:08.819Z,0
2022-11-16T23:18:08.843Z,0
2022-11-16T23:23:08.877Z,0
2022-11-16T23:28:08.788Z,0
2022-11-16T23:33:08.799Z,0
2022-11-16T23:38:08.861Z,0
2022-11-16T23:43:08.841Z,0
2022-11-16T23:48:08.832Z,0
2022-11-16T23:53:08.895Z,0
2022-11-16T23:58:08.848Z,0
